Madbury, New Hampshire
Current Conditions -  °F | °C
As of 9:51 PM on Saturday 22 Nov 2014 (Local Time) from KDAW Reporting Station
Broken Clouds Broken Clouds  
Wind Chill: 34°   Ceiling: 3400
Heat Index: 38°   Visibility: 10mi
Dew Point: 12°   Wind: 5mph
Humidity: 35%   Direction: 170°S
Pressure: 30"   Gusts: NA
Location:  43.17°N, 70.93°W
Report Text: KDAW 230251Z AUTO 17004KT 10SM BKN034 03/M11 A3000 RMK AO2 SLP159 T00331111 55007
Loading
Personal Weather Stations






























Interactive Weather Map New forecast layout! Learn more

10-Day Weather Forecast

Advertisements
Track Severe Weather on mobile